sensor_id;sensor_type;location;lat;lon;timestamp;P1;durP1;ratioP1;P2;durP2;ratioP2
44858;SDS011;30595;52.478;13.524;2022-09-09T00:04:24;168.25;;;122.45;;
44858;SDS011;30595;52.478;13.524;2022-09-09T00:29:32;182.27;;;125.53;;
44858;SDS011;30595;52.478;13.524;2022-09-09T00:54:40;185.73;;;124.25;;
44858;SDS011;30595;52.478;13.524;2022-09-09T01:19:52;180.75;;;123.80;;
44858;SDS011;30595;52.478;13.524;2022-09-09T01:45:00;169.90;;;121.18;;
44858;SDS011;30595;52.478;13.524;2022-09-09T02:10:05;172.82;;;121.85;;
44858;SDS011;30595;52.478;13.524;2022-09-09T02:35:14;175.63;;;122.47;;
44858;SDS011;30595;52.478;13.524;2022-09-09T03:00:23;174.32;;;120.82;;
44858;SDS011;30595;52.478;13.524;2022-09-09T03:25:29;176.38;;;121.53;;
44858;SDS011;30595;52.478;13.524;2022-09-09T03:50:35;181.40;;;122.35;;
44858;SDS011;30595;52.478;13.524;2022-09-09T04:15:40;202.48;;;126.97;;
44858;SDS011;30595;52.478;13.524;2022-09-09T04:40:46;170.15;;;121.57;;
44858;SDS011;30595;52.478;13.524;2022-09-09T05:05:50;192.38;;;125.85;;
44858;SDS011;30595;52.478;13.524;2022-09-09T05:30:56;213.30;;;129.65;;
44858;SDS011;30595;52.478;13.524;2022-09-09T05:56:05;202.00;;;134.90;;
44858;SDS011;30595;52.478;13.524;2022-09-09T06:21:15;194.50;;;137.98;;
44858;SDS011;30595;52.478;13.524;2022-09-09T06:46:21;211.10;;;142.88;;
44858;SDS011;30595;52.478;13.524;2022-09-09T07:11:27;192.75;;;137.98;;
44858;SDS011;30595;52.478;13.524;2022-09-09T07:36:33;230.05;;;139.25;;
44858;SDS011;30595;52.478;13.524;2022-09-09T08:01:39;215.60;;;134.80;;
44858;SDS011;30595;52.478;13.524;2022-09-09T08:26:44;205.98;;;133.38;;
44858;SDS011;30595;52.478;13.524;2022-09-09T08:51:50;201.73;;;131.57;;
44858;SDS011;30595;52.478;13.524;2022-09-09T09:16:56;231.77;;;136.35;;
44858;SDS011;30595;52.478;13.524;2022-09-09T09:42:08;243.57;;;136.48;;
44858;SDS011;30595;52.478;13.524;2022-09-09T10:07:21;204.05;;;130.65;;
44858;SDS011;30595;52.478;13.524;2022-09-09T10:32:33;210.95;;;132.80;;
44858;SDS011;30595;52.478;13.524;2022-09-09T10:57:38;222.55;;;135.48;;
44858;SDS011;30595;52.478;13.524;2022-09-09T11:22:45;191.18;;;128.80;;
44858;SDS011;30595;52.478;13.524;2022-09-09T11:47:54;211.73;;;133.00;;
44858;SDS011;30595;52.478;13.524;2022-09-09T12:13:08;214.77;;;133.65;;
44858;SDS011;30595;52.478;13.524;2022-09-09T12:38:20;223.50;;;138.30;;
44858;SDS011;30595;52.478;13.524;2022-09-09T13:03:26;220.90;;;134.80;;
44858;SDS011;30595;52.478;13.524;2022-09-09T13:28:31;215.98;;;134.45;;
44858;SDS011;30595;52.478;13.524;2022-09-09T13:53:36;200.98;;;133.68;;
44858;SDS011;30595;52.478;13.524;2022-09-09T14:18:41;221.07;;;134.05;;
44858;SDS011;30595;52.478;13.524;2022-09-09T14:43:46;206.23;;;132.95;;
44858;SDS011;30595;52.478;13.524;2022-09-09T15:08:51;216.60;;;135.43;;
44858;SDS011;30595;52.478;13.524;2022-09-09T15:33:56;193.23;;;130.70;;
44858;SDS011;30595;52.478;13.524;2022-09-09T15:59:03;221.43;;;134.98;;
44858;SDS011;30595;52.478;13.524;2022-09-09T16:24:08;185.52;;;128.00;;
44858;SDS011;30595;52.478;13.524;2022-09-09T16:49:13;214.13;;;132.23;;
44858;SDS011;30595;52.478;13.524;2022-09-09T17:14:19;201.15;;;131.35;;
44858;SDS011;30595;52.478;13.524;2022-09-09T17:39:23;200.68;;;128.05;;
44858;SDS011;30595;52.478;13.524;2022-09-09T18:04:27;203.80;;;127.40;;
44858;SDS011;30595;52.478;13.524;2022-09-09T18:29:31;196.30;;;126.30;;
44858;SDS011;30595;52.478;13.524;2022-09-09T18:54:36;207.50;;;128.02;;
44858;SDS011;30595;52.478;13.524;2022-09-09T19:19:40;233.70;;;139.73;;
44858;SDS011;30595;52.478;13.524;2022-09-09T19:44:45;191.43;;;126.30;;
44858;SDS011;30595;52.478;13.524;2022-09-09T20:09:49;193.10;;;125.97;;
44858;SDS011;30595;52.478;13.524;2022-09-09T20:34:56;202.45;;;127.20;;
44858;SDS011;30595;52.478;13.524;2022-09-09T21:00:00;204.53;;;135.47;;
44858;SDS011;30595;52.478;13.524;2022-09-09T21:25:05;197.27;;;126.47;;
44858;SDS011;30595;52.478;13.524;2022-09-09T21:50:10;179.45;;;124.15;;
44858;SDS011;30595;52.478;13.524;2022-09-09T22:15:14;184.73;;;121.45;;
44858;SDS011;30595;52.478;13.524;2022-09-09T22:40:18;174.13;;;120.85;;
44858;SDS011;30595;52.478;13.524;2022-09-09T23:05:22;174.43;;;121.30;;
44858;SDS011;30595;52.478;13.524;2022-09-09T23:30:29;170.70;;;120.13;;
44858;SDS011;30595;52.478;13.524;2022-09-09T23:55:33;178.02;;;123.60;;
